Time;durP1;ratioP1;P1;durP2;ratioP2;P2;SDS_P1;SDS_P2;PMS_P1;PMS_P2;Temp;Humidity;BMP_temperature;BMP_pressure;BME280_temperature;BME280_humidity;BME280_pressure;Samples;Min_cycle;Max_cycle;Signal;HPM_P1;HPM_P2
2021/03/14 00:00:27;;;;;;;5.97;2.23;;;;;;;5.14;70.30;98845.00;5082882;28;20695;-64
2021/03/14 00:02:53;;;;;;;4.33;1.90;;;;;;;5.15;70.00;98857.25;5081985;28;20224;-65
2021/03/14 00:05:21;;;;;;;3.77;1.93;;;;;;;5.15;70.00;98849.34;5082739;28;20211;-65
2021/03/14 00:07:47;;;;;;;4.13;2.10;;;;;;;5.16;69.92;98857.16;5087760;28;20197;-65
2021/03/14 00:10:13;;;;;;;4.67;1.83;;;;;;;5.17;70.28;98868.56;5087946;28;20215;-64
2021/03/14 00:12:39;;;;;;;4.17;2.17;;;;;;;5.17;70.24;98864.13;5084038;28;20220;-64
2021/03/14 00:15:08;;;;;;;4.43;2.27;;;;;;;5.18;69.97;98876.38;5085601;28;20564;-65
2021/03/14 00:17:34;;;;;;;7.23;2.40;;;;;;;5.20;70.38;98873.59;5087614;28;20211;-65
2021/03/14 00:20:00;;;;;;;6.53;2.13;;;;;;;5.20;69.98;98869.16;5086302;28;20297;-65
2021/03/14 00:22:28;;;;;;;7.47;2.10;;;;;;;5.22;69.81;98879.63;5088175;28;20230;-65
2021/03/14 00:24:54;;;;;;;7.13;1.90;;;;;;;5.24;69.72;98888.28;5090621;28;20832;-65
2021/03/14 00:27:20;;;;;;;4.50;2.00;;;;;;;5.28;69.85;98902.94;5092075;28;20239;-65
2021/03/14 00:29:46;;;;;;;4.00;2.10;;;;;;;5.28;69.63;98896.81;5083853;28;20208;-65
2021/03/14 00:32:12;;;;;;;4.27;1.77;;;;;;;5.28;69.70;98887.13;5081849;28;20200;-65
2021/03/14 00:34:38;;;;;;;3.57;1.90;;;;;;;5.27;69.55;98901.25;5091727;28;20284;-65
2021/03/14 00:37:04;;;;;;;4.70;2.10;;;;;;;5.29;69.53;98895.88;5083660;28;20196;-65
2021/03/14 00:39:31;;;;;;;5.70;2.20;;;;;;;5.28;69.99;98897.69;5081915;28;20203;-65
2021/03/14 00:41:57;;;;;;;4.10;1.57;;;;;;;5.30;69.76;98902.84;5087844;28;20204;-64
2021/03/14 00:44:23;;;;;;;5.53;1.70;;;;;;;5.30;69.69;98900.22;5084847;28;20200;-64
2021/03/14 00:46:49;;;;;;;5.93;2.40;;;;;;;5.30;70.02;98913.41;5087637;28;20216;-65
2021/03/14 00:49:17;;;;;;;4.97;2.30;;;;;;;5.29;69.70;98912.56;5085347;28;20205;-65
2021/03/14 00:51:43;;;;;;;7.07;2.20;;;;;;;5.30;69.74;98924.81;5081794;28;20311;-65
2021/03/14 00:54:09;;;;;;;4.33;2.23;;;;;;;5.32;69.98;98917.63;5091756;28;20234;-65
2021/03/14 00:56:36;;;;;;;3.80;2.30;;;;;;;5.31;69.55;98913.31;5089677;28;20204;-64
2021/03/14 00:59:02;;;;;;;5.70;2.53;;;;;;;5.31;69.75;98921.22;5090360;28;20200;-65
2021/03/14 01:01:28;;;;;;;6.17;2.47;;;;;;;5.32;69.92;98928.19;5082469;28;20624;-64
2021/03/14 01:03:54;;;;;;;6.53;1.83;;;;;;;5.33;69.72;98935.16;5087215;28;20239;-65
2021/03/14 01:06:21;;;;;;;6.93;2.37;;;;;;;5.34;69.83;98928.94;5081053;28;20582;-65
2021/03/14 01:08:47;;;;;;;4.17;2.40;;;;;;;5.36;69.80;98928.84;5085044;28;20200;-64
2021/03/14 01:11:13;;;;;;;6.93;2.33;;;;;;;5.36;69.99;98936.75;5086376;28;20201;-62
2021/03/14 01:13:40;;;;;;;4.93;2.20;;;;;;;5.36;70.17;98932.31;5082682;28;20220;-65
2021/03/14 01:16:06;;;;;;;4.37;2.43;;;;;;;5.37;70.19;98943.72;5085643;28;20204;-65
2021/03/14 01:18:32;;;;;;;4.67;2.23;;;;;;;5.37;69.91;98938.44;5088495;28;20287;-64
2021/03/14 01:20:59;;;;;;;5.70;2.33;;;;;;;5.38;69.70;98943.59;5082402;28;20201;-64
2021/03/14 01:23:25;;;;;;;6.30;2.63;;;;;;;5.39;69.89;98945.28;5083884;28;20574;-64
2021/03/14 01:25:51;;;;;;;5.63;2.23;;;;;;;5.39;69.56;98947.06;5081830;28;20243;-65
2021/03/14 01:28:17;;;;;;;7.03;2.53;;;;;;;5.40;69.92;98954.03;5076936;28;20288;-64
2021/03/14 01:30:44;;;;;;;4.40;2.10;;;;;;;5.41;69.87;98955.72;5083046;28;20212;-65
2021/03/14 01:33:10;;;;;;;4.30;2.50;;;;;;;5.44;69.76;98959.00;5090571;28;20232;-65
2021/03/14 01:35:37;;;;;;;5.43;2.40;;;;;;;5.44;69.86;98959.00;5091341;28;20661;-65
2021/03/14 01:38:03;;;;;;;6.80;2.27;;;;;;;5.46;69.62;98961.56;5086398;28;20211;-64
2021/03/14 01:40:30;;;;;;;4.70;2.73;;;;;;;5.46;69.34;98965.03;5085896;28;20715;-63
2021/03/14 01:42:56;;;;;;;5.27;2.43;;;;;;;5.48;69.70;98968.41;5080259;28;20780;-64
2021/03/14 01:45:23;;;;;;;5.77;2.17;;;;;;;5.47;69.54;98953.53;5084429;28;20216;-64
2021/03/14 01:47:52;;;;;;;6.23;2.50;;;;;;;5.48;69.55;98978.13;5090111;28;20204;-64
2021/03/14 01:50:20;;;;;;;3.40;2.00;;;;;;;5.46;69.82;98978.25;5087079;28;20565;-63
2021/03/14 01:52:47;;;;;;;4.80;2.37;;;;;;;5.48;69.55;98978.13;5080901;28;20225;-63
2021/03/14 01:55:15;;;;;;;5.83;1.93;;;;;;;5.48;69.47;98978.97;5082826;28;20562;-65
2021/03/14 01:57:42;;;;;;;7.17;2.23;;;;;;;5.48;69.40;98976.34;5082873;28;20201;-64
2021/03/14 02:00:11;;;;;;;5.80;2.80;;;;;;;5.48;69.74;98973.69;5077264;28;20209;-64
2021/03/14 02:02:37;;;;;;;5.47;2.40;;;;;;;5.50;69.63;98986.78;5087385;28;20324;-64
2021/03/14 02:05:05;;;;;;;5.90;2.00;;;;;;;5.49;69.27;98985.94;5083353;28;20219;-64
2021/03/14 02:07:32;;;;;;;4.63;2.20;;;;;;;5.50;69.44;98981.50;5092957;28;20227;-65
2021/03/14 02:09:58;;;;;;;5.17;1.80;;;;;;;5.50;69.37;99000.84;5085775;28;20204;-65
2021/03/14 02:12:26;;;;;;;7.10;2.40;;;;;;;5.50;69.18;98998.22;5086444;28;20231;-65
2021/03/14 02:14:58;;;;;;;5.37;2.53;;;;;;;5.52;69.76;99006.88;5092716;28;20210;-64
2021/03/14 02:17:29;;;;;;;8.70;2.40;;;;;;;5.52;69.63;99003.38;5088139;28;20204;-65
2021/03/14 02:20:01;;;;;;;6.50;2.80;;;;;;;5.51;69.68;99015.75;5089919;28;20204;-65
2021/03/14 02:22:28;;;;;;;3.63;2.07;;;;;;;5.51;69.42;99013.09;5091671;28;20311;-65
2021/03/14 02:25:00;;;;;;;4.83;2.60;;;;;;;5.51;69.42;99012.25;5089194;28;20200;-64
2021/03/14 02:27:27;;;;;;;6.40;2.17;;;;;;;5.50;69.71;99026.41;5079583;28;20235;-65
2021/03/14 02:29:54;;;;;;;6.27;1.77;;;;;;;5.50;69.61;99031.69;5091650;28;20222;-64
2021/03/14 02:32:22;;;;;;;4.17;1.97;;;;;;;5.50;69.66;99034.31;5081628;28;20657;-64
2021/03/14 02:34:53;;;;;;;5.30;2.17;;;;;;;5.49;69.45;99025.56;5083866;28;20208;-65
2021/03/14 02:37:21;;;;;;;5.73;2.53;;;;;;;5.49;69.63;99036.13;5099743;28;20745;-64
2021/03/14 02:39:48;;;;;;;6.70;2.33;;;;;;;5.49;69.56;99027.34;5085235;28;20212;-65
2021/03/14 02:42:15;;;;;;;6.73;2.63;;;;;;;5.45;69.73;99032.00;5084615;28;20231;-65
2021/03/14 02:44:47;;;;;;;7.20;2.77;;;;;;;5.46;70.09;99019.63;5079347;28;20672;-65
2021/03/14 02:47:14;;;;;;;5.53;2.20;;;;;;;5.45;69.79;99021.44;5087456;28;20641;-65
2021/03/14 02:49:40;;;;;;;7.13;2.30;;;;;;;5.45;69.76;99031.16;5074792;28;20205;-65
2021/03/14 02:52:09;;;;;;;4.63;2.90;;;;;;;5.44;69.70;99034.72;5086475;28;20295;-64
2021/03/14 02:54:37;;;;;;;10.53;2.40;;;;;;;5.43;70.08;99033.03;5087581;28;20788;-64
2021/03/14 02:57:04;;;;;;;4.90;2.87;;;;;;;5.43;70.24;99022.47;5085273;28;20287;-64
2021/03/14 02:59:32;;;;;;;6.23;2.37;;;;;;;5.43;70.10;99052.38;5094167;28;20230;-65
2021/03/14 03:01:59;;;;;;;5.57;2.37;;;;;;;5.43;70.04;99059.44;5095534;28;20200;-64
2021/03/14 03:04:26;;;;;;;5.33;2.00;;;;;;;5.44;69.83;99058.50;5095017;28;20207;-64
2021/03/14 03:06:55;;;;;;;5.73;2.30;;;;;;;5.42;69.88;99061.22;5097229;28;20219;-65
2021/03/14 03:09:21;;;;;;;7.50;2.60;;;;;;;5.43;70.01;99073.50;5086876;28;20200;-65
2021/03/14 03:11:50;;;;;;;6.17;2.30;;;;;;;5.42;70.22;99078.88;5087806;28;20204;-65
2021/03/14 03:14:19;;;;;;;7.83;2.80;;;;;;;5.41;69.87;99093.88;5083102;28;20224;-65
2021/03/14 03:16:49;;;;;;;6.20;2.57;;;;;;;5.42;70.15;99095.56;5084048;28;20196;-64
2021/03/14 03:19:17;;;;;;;8.07;2.70;;;;;;;5.41;70.37;99099.16;5088486;28;20212;-63
2021/03/14 03:21:44;;;;;;;10.57;2.43;;;;;;;5.43;70.57;99093.75;5084485;28;20291;-64
2021/03/14 03:24:11;;;;;;;4.73;2.50;;;;;;;5.42;70.33;99100.00;5083630;28;20713;-64
2021/03/14 03:26:37;;;;;;;4.60;2.17;;;;;;;5.42;70.45;99097.34;5084165;28;20227;-63
2021/03/14 03:29:04;;;;;;;7.10;2.80;;;;;;;5.41;70.80;99101.78;5078988;28;20249;-65
2021/03/14 03:31:30;;;;;;;3.60;2.43;;;;;;;5.40;70.72;99108.00;5085822;28;20287;-62
2021/03/14 03:33:56;;;;;;;5.17;2.33;;;;;;;5.40;70.46;99115.09;5077190;28;20315;-64
2021/03/14 03:36:23;;;;;;;7.30;2.70;;;;;;;5.38;70.91;99109.91;5078147;28;20211;-64
2021/03/14 03:38:49;;;;;;;7.77;2.60;;;;;;;5.40;70.84;99131.78;5078153;28;20291;-65
2021/03/14 03:41:15;;;;;;;7.93;3.07;;;;;;;5.38;70.70;99136.31;5084521;28;20291;-65
2021/03/14 03:43:43;;;;;;;4.43;2.67;;;;;;;5.38;70.64;99141.59;5088484;28;20321;-65
2021/03/14 03:46:11;;;;;;;7.97;2.80;;;;;;;5.39;70.92;99148.56;5089612;28;20224;-65
2021/03/14 03:48:41;;;;;;;6.63;2.60;;;;;;;5.39;70.98;99143.28;5083654;28;20307;-65
2021/03/14 03:51:07;;;;;;;5.03;2.20;;;;;;;5.39;70.86;99148.56;5094571;28;20206;-65
2021/03/14 03:53:37;;;;;;;6.90;2.13;;;;;;;5.39;71.06;99153.84;5089283;28;20230;-65
2021/03/14 03:56:04;;;;;;;4.27;2.37;;;;;;;5.38;71.09;99167.13;5091669;28;20687;-65
2021/03/14 03:58:32;;;;;;;5.93;2.53;;;;;;;5.39;71.34;99169.69;5089987;28;20299;-65
2021/03/14 04:00:59;;;;;;;6.50;2.30;;;;;;;5.38;71.30;99170.63;5082455;28;20192;-64
2021/03/14 04:03:25;;;;;;;7.00;2.73;;;;;;;5.37;71.25;99182.16;5074672;28;20239;-63
2021/03/14 04:05:57;;;;;;;8.13;2.00;;;;;;;5.37;71.13;99202.44;5092724;28;20281;-64
2021/03/14 04:08:24;;;;;;;4.90;2.23;;;;;;;5.36;71.70;99198.09;5086182;28;20208;-64
2021/03/14 04:10:52;;;;;;;3.67;2.30;;;;;;;5.36;71.62;99196.31;5077548;28;20201;-64
2021/03/14 04:13:19;;;;;;;5.30;2.17;;;;;;;5.36;71.97;99201.59;5083455;28;20225;-65
2021/03/14 04:15:45;;;;;;;5.80;2.30;;;;;;;5.34;71.70;99213.19;5091507;28;20201;-65
2021/03/14 04:18:12;;;;;;;5.47;2.30;;;;;;;5.33;72.12;99214.97;5083842;28;20207;-65
2021/03/14 04:20:40;;;;;;;2.97;1.90;;;;;;;5.32;71.62;99223.84;5084000;28;20760;-65
2021/03/14 04:23:09;;;;;;;5.50;2.47;;;;;;;5.31;71.96;99229.22;5080468;28;20273;-65
2021/03/14 04:25:36;;;;;;;8.00;2.60;;;;;;;5.30;72.33;99230.16;5074060;28;20493;-65
2021/03/14 04:28:05;;;;;;;6.50;2.77;;;;;;;5.28;72.21;99240.81;5084159;28;20246;-65
2021/03/14 04:30:32;;;;;;;4.60;1.73;;;;;;;5.26;72.59;99265.59;5093185;28;20249;-65
2021/03/14 04:32:59;;;;;;;2.00;0.93;;;;;;;5.19;72.39;99257.25;5090491;28;20220;-65
2021/03/14 04:35:26;;;;;;;3.67;1.63;;;;;;;5.05;72.79;99273.09;5082969;28;20205;-65
2021/03/14 04:37:54;;;;;;;3.80;1.13;;;;;;;4.89;72.95;99266.13;5093579;28;20204;-65
2021/03/14 04:40:22;;;;;;;5.33;1.60;;;;;;;4.74;72.63;99276.78;5091154;28;20212;-65
2021/03/14 04:42:50;;;;;;;4.53;1.77;;;;;;;4.61;73.50;99275.84;5085151;28;20716;-65
2021/03/14 04:45:18;;;;;;;5.27;1.87;;;;;;;4.52;73.40;99267.53;5086132;28;20299;-65
2021/03/14 04:47:46;;;;;;;4.03;2.03;;;;;;;4.49;74.00;99282.69;5091619;28;20231;-65
2021/03/14 04:50:15;;;;;;;4.10;2.07;;;;;;;4.45;74.22;99287.31;5081823;28;20661;-66
2021/03/14 04:52:44;;;;;;;2.50;2.00;;;;;;;4.44;74.96;99290.03;5084161;28;20774;-65
2021/03/14 04:55:13;;;;;;;4.73;2.13;;;;;;;4.44;75.67;99290.03;5083509;28;20208;-65
2021/03/14 04:57:41;;;;;;;4.47;2.33;;;;;;;4.44;75.33;99300.59;5088342;28;20193;-65
2021/03/14 05:00:09;;;;;;;4.00;2.40;;;;;;;4.44;75.43;99308.50;5092130;28;20217;-66
2021/03/14 05:02:37;;;;;;;9.37;3.00;;;;;;;4.44;75.80;99314.63;5085294;28;20220;-65
2021/03/14 05:05:05;;;;;;;6.97;3.33;;;;;;;4.46;76.12;99310.09;5085652;28;20291;-65
2021/03/14 05:07:32;;;;;;;8.57;3.27;;;;;;;4.51;76.79;99323.00;5077251;28;20268;-65
2021/03/14 05:10:00;;;;;;;8.10;3.30;;;;;;;4.52;77.12;99330.81;5076781;28;20199;-65
2021/03/14 05:12:27;;;;;;;3.17;2.07;;;;;;;4.53;77.12;99329.88;5078332;28;20326;-65
2021/03/14 05:14:54;;;;;;;3.00;1.97;;;;;;;4.53;76.71;99339.56;5090897;28;20268;-65
2021/03/14 05:17:21;;;;;;;6.50;2.13;;;;;;;4.49;76.99;99356.50;5083225;28;20287;-66
2021/03/14 05:19:48;;;;;;;3.67;1.43;;;;;;;4.47;77.52;99345.22;5090299;28;20295;-66
2021/03/14 05:22:18;;;;;;;3.30;1.73;;;;;;;4.43;77.09;99359.53;5079154;28;20296;-66
2021/03/14 05:24:46;;;;;;;4.23;2.27;;;;;;;4.39;77.00;99356.22;5081488;28;20201;-66
2021/03/14 05:27:12;;;;;;;4.97;2.03;;;;;;;4.39;78.12;99358.00;5088593;28;20223;-65
2021/03/14 05:29:38;;;;;;;3.20;1.90;;;;;;;4.35;77.64;99370.50;5089975;28;20245;-64
2021/03/14 05:32:05;;;;;;;3.00;1.63;;;;;;;4.34;78.25;99373.22;5088225;28;20249;-65
2021/03/14 05:34:31;;;;;;;2.13;0.80;;;;;;;4.31;77.56;99379.50;5091690;28;20196;-66
2021/03/14 05:36:58;;;;;;;0.53;0.50;;;;;;;4.26;78.60;99380.75;5086628;28;20200;-65
2021/03/14 05:39:24;;;;;;;0.37;0.30;;;;;;;4.21;78.50;99393.31;5087434;28;20658;-65
2021/03/14 05:41:51;;;;;;;1.50;0.60;;;;;;;4.15;77.68;99398.00;5090348;28;20200;-67
2021/03/14 05:44:18;;;;;;;1.50;0.80;;;;;;;4.10;78.72;99401.84;5080692;28;20737;-65
2021/03/14 05:46:44;;;;;;;1.63;0.60;;;;;;;4.05;78.01;99396.84;5089962;28;20231;-66
2021/03/14 05:49:10;;;;;;;1.20;0.93;;;;;;;4.03;78.52;99398.69;5095799;28;20212;-65
2021/03/14 05:51:41;;;;;;;3.13;1.87;;;;;;;3.99;79.07;99418.25;5088026;28;20299;-65
2021/03/14 05:54:11;;;;;;;1.40;1.30;;;;;;;3.97;78.85;99412.22;5079952;28;20370;-65
2021/03/14 05:56:41;;;;;;;3.60;1.50;;;;;;;3.96;79.61;99414.91;5081340;28;20722;-65
2021/03/14 05:59:09;;;;;;;3.80;1.87;;;;;;;3.96;79.61;99410.50;5089484;28;20208;-65
2021/03/14 06:01:36;;;;;;;4.00;2.67;;;;;;;3.97;79.42;99417.47;5091073;28;20231;-65
2021/03/14 06:04:03;;;;;;;5.00;2.23;;;;;;;3.98;79.33;99424.44;5095804;28;20310;-64
2021/03/14 06:06:30;;;;;;;4.60;2.70;;;;;;;4.01;79.56;99428.69;5094067;28;20224;-65
2021/03/14 06:08:56;;;;;;;6.30;2.83;;;;;;;4.03;79.95;99434.72;5085951;28;20296;-65
2021/03/14 06:11:23;;;;;;;4.50;2.90;;;;;;;4.05;79.52;99430.22;5074490;28;20205;-65
2021/03/14 06:13:50;;;;;;;7.73;3.13;;;;;;;4.06;79.79;99440.69;5077074;28;20216;-64
2021/03/14 06:16:16;;;;;;;7.97;3.10;;;;;;;4.08;80.36;99430.06;5091010;28;20251;-65
2021/03/14 06:18:43;;;;;;;7.67;3.03;;;;;;;4.10;79.81;99436.94;5083165;28;20208;-64
2021/03/14 06:21:19;;;;;;;6.40;3.10;;;;;;;4.13;80.57;99444.66;5101776;28;20213;-65
2021/03/14 06:23:55;;;;;;;9.30;3.00;;;;;;;4.18;79.95;99452.31;5100392;28;20293;-65
2021/03/14 06:26:21;;;;;;;7.57;3.53;;;;;;;4.21;79.93;99457.41;5087534;28;20233;-65
2021/03/14 06:28:48;;;;;;;7.63;3.30;;;;;;;4.25;80.00;99460.72;5098315;28;20211;-65
2021/03/14 06:31:18;;;;;;;8.30;3.60;;;;;;;4.29;80.07;99465.75;5098407;28;20206;-65
2021/03/14 06:33:44;;;;;;;12.00;3.97;;;;;;;4.33;80.66;99469.91;5102125;28;20719;-64
2021/03/14 06:36:15;;;;;;;10.63;4.07;;;;;;;4.38;80.08;99480.19;5101283;28;20673;-64
2021/03/14 06:38:42;;;;;;;9.27;4.47;;;;;;;4.43;80.29;99488.69;5099152;28;20216;-65
2021/03/14 06:41:14;;;;;;;6.70;4.23;;;;;;;4.47;80.53;99484.94;5100668;28;20203;-64
2021/03/14 06:43:43;;;;;;;10.47;4.50;;;;;;;4.49;80.38;99499.72;5090208;28;20219;-65
2021/03/14 06:46:21;;;;;;;7.07;3.70;;;;;;;4.54;80.23;99500.31;5101809;28;20674;-64
2021/03/14 06:48:48;;;;;;;10.67;4.10;;;;;;;4.56;80.33;99513.41;5095773;28;20196;-65
2021/03/14 06:51:33;;;;;;;6.90;3.80;;;;;;;4.61;80.29;99513.16;5099747;28;20647;-64
2021/03/14 06:54:20;;;;;;;6.80;3.77;;;;;;;4.64;80.17;99529.66;5088302;28;20345;-65
2021/03/14 06:56:57;;;;;;;11.87;4.40;;;;;;;4.67;80.02;99529.47;5097172;28;20654;-64
2021/03/14 06:59:24;;;;;;;12.43;4.10;;;;;;;4.71;80.05;99543.34;5082417;28;20750;-64
2021/03/14 07:01:58;;;;;;;7.53;3.40;;;;;;;4.72;79.94;99548.53;5090860;28;20207;-65
2021/03/14 07:04:35;;;;;;;9.17;3.33;;;;;;;4.74;79.57;99548.44;5087297;28;20724;-65
2021/03/14 07:07:01;;;;;;;7.73;3.43;;;;;;;4.75;79.96;99565.97;5096870;28;20215;-65
2021/03/14 07:09:27;;;;;;;7.80;3.40;;;;;;;4.76;79.50;99571.16;5093585;28;20212;-65
2021/03/14 07:11:54;;;;;;;6.00;2.90;;;;;;;4.77;79.31;99572.84;5088188;28;20196;-64
2021/03/14 07:14:21;;;;;;;6.47;3.37;;;;;;;4.78;79.60;99579.84;5092600;28;20772;-65
2021/03/14 07:16:48;;;;;;;9.23;3.00;;;;;;;4.80;79.04;99593.78;5089958;28;20686;-65
2021/03/14 07:19:17;;;;;;;6.77;3.10;;;;;;;4.81;79.39;99590.22;5099527;28;20287;-65
2021/03/14 07:21:43;;;;;;;8.60;3.47;;;;;;;4.83;79.39;99596.25;5088073;28;20219;-64
2021/03/14 07:24:14;;;;;;;5.53;3.07;;;;;;;4.86;78.84;99613.69;5091945;28;20215;-65
2021/03/14 07:26:42;;;;;;;9.93;3.90;;;;;;;4.88;78.36;99612.66;5102767;28;20223;-64
2021/03/14 07:29:09;;;;;;;6.83;3.33;;;;;;;4.90;78.90;99625.78;5098609;28;20203;-65
2021/03/14 07:31:36;;;;;;;8.93;3.73;;;;;;;4.94;78.73;99626.44;5085967;28;20249;-65
2021/03/14 07:34:03;;;;;;;8.63;3.70;;;;;;;4.95;78.48;99625.50;5086418;28;20759;-64
2021/03/14 07:36:30;;;;;;;8.63;4.37;;;;;;;4.97;78.07;99639.47;5087842;28;20573;-65
2021/03/14 07:38:57;;;;;;;6.83;3.30;;;;;;;4.98;78.24;99647.31;5083283;28;20557;-64
2021/03/14 07:41:25;;;;;;;10.77;4.03;;;;;;;4.99;78.17;99648.16;5082420;28;20226;-63
2021/03/14 07:43:51;;;;;;;8.97;4.30;;;;;;;5.01;77.76;99659.47;5087769;28;20232;-65
2021/03/14 07:46:21;;;;;;;8.97;3.50;;;;;;;5.01;77.86;99657.69;5087967;28;20675;-64
2021/03/14 07:48:50;;;;;;;7.97;3.80;;;;;;;5.03;77.91;99668.13;5091055;28;20211;-64
2021/03/14 07:51:17;;;;;;;9.03;3.73;;;;;;;5.04;78.09;99668.06;5091483;28;20313;-65
2021/03/14 07:53:45;;;;;;;9.13;4.97;;;;;;;5.04;77.71;99673.34;5092048;28;21742;-65
2021/03/14 07:56:11;;;;;;;9.30;4.23;;;;;;;5.08;77.25;99685.44;5090485;28;20338;-64
2021/03/14 07:58:38;;;;;;;8.70;3.90;;;;;;;5.08;77.29;99689.84;5084642;28;20205;-64
2021/03/14 08:01:27;;;;;;;6.53;3.07;;;;;;;5.09;76.93;99697.69;5075737;28;20230;-64
2021/03/14 08:03:53;;;;;;;7.37;3.60;;;;;;;5.10;77.04;99707.31;5084491;28;20234;-64
2021/03/14 08:06:48;;;;;;;8.13;3.63;;;;;;;5.11;77.37;99706.38;5080536;28;20204;-65
2021/03/14 08:09:39;;;;;;;6.87;3.87;;;;;;;5.13;76.79;99719.50;5082076;28;20207;-64
2021/03/14 08:12:20;;;;;;;9.80;3.17;;;;;;;5.15;76.65;99722.91;5081871;28;20219;-64
2021/03/14 08:14:47;;;;;;;7.93;3.37;;;;;;;5.16;76.93;99728.09;5085951;28;20219;-64
2021/03/14 08:17:18;;;;;;;9.03;3.70;;;;;;;5.18;76.72;99731.50;5089219;28;20207;-64
2021/03/14 08:19:45;;;;;;;6.03;3.63;;;;;;;5.18;76.74;99738.56;5087609;28;20189;-63
2021/03/14 08:22:42;;;;;;;8.30;3.93;;;;;;;5.21;76.80;99735.72;5087643;28;20626;-64
2021/03/14 08:25:27;;;;;;;5.83;3.57;;;;;;;5.25;76.31;99742.53;5088592;28;20203;-67
2021/03/14 08:27:56;;;;;;;7.17;3.77;;;;;;;5.28;75.88;99749.44;5092742;28;20258;-67
2021/03/14 08:30:47;;;;;;;6.50;3.20;;;;;;;5.28;76.47;99752.94;5091028;28;20214;-67
2021/03/14 08:33:34;;;;;;;5.70;3.60;;;;;;;5.33;75.85;99758.81;5079462;28;20270;-67
2021/03/14 08:36:02;;;;;;;5.93;3.27;;;;;;;5.39;76.43;99757.59;5083966;28;20911;-67
2021/03/14 08:38:46;;;;;;;4.93;2.73;;;;;;;5.45;76.04;99762.56;5083042;28;20247;-67
2021/03/14 08:41:36;;;;;;;6.83;3.80;;;;;;;5.52;75.88;99761.28;5086968;28;20204;-67
2021/03/14 08:44:08;;;;;;;5.73;3.30;;;;;;;5.58;75.95;99780.25;5082163;28;20227;-67
2021/03/14 08:47:05;;;;;;;7.07;3.20;;;;;;;5.64;75.85;99784.34;5085276;28;20224;-67
2021/03/14 08:49:33;;;;;;;9.17;3.90;;;;;;;5.67;75.86;99781.53;5090538;28;20291;-67
2021/03/14 08:51:59;;;;;;;5.93;3.47;;;;;;;5.72;75.51;99791.84;5091510;28;20213;-66
2021/03/14 08:54:28;;;;;;;4.87;3.10;;;;;;;5.75;75.45;99796.94;5088011;28;20208;-67
2021/03/14 08:56:57;;;;;;;4.57;2.70;;;;;;;5.77;75.35;99793.28;5089755;28;20196;-66
2021/03/14 08:59:24;;;;;;;6.40;2.93;;;;;;;5.82;75.39;99795.66;5088750;28;20291;-67
2021/03/14 09:01:55;;;;;;;6.50;2.73;;;;;;;5.90;75.22;99798.75;5081719;28;20253;-67
2021/03/14 09:04:25;;;;;;;5.50;2.60;;;;;;;5.97;75.20;99793.94;5088917;28;20200;-66
2021/03/14 09:06:51;;;;;;;5.97;2.70;;;;;;;6.03;75.06;99804.19;5090466;28;20228;-66
2021/03/14 09:09:20;;;;;;;10.63;3.23;;;;;;;6.08;74.53;99810.06;5091465;28;20208;-66
2021/03/14 09:11:48;;;;;;;6.27;3.13;;;;;;;6.11;74.30;99813.34;5088878;28;20287;-67
2021/03/14 09:14:26;;;;;;;6.53;2.97;;;;;;;6.15;73.88;99814.88;5088907;28;20220;-66
2021/03/14 09:16:53;;;;;;;5.30;3.10;;;;;;;6.19;73.96;99818.19;5093846;28;20266;-66
2021/03/14 09:19:28;;;;;;;6.23;2.93;;;;;;;6.24;73.94;99824.06;5092806;28;20195;-66
2021/03/14 09:21:56;;;;;;;5.23;3.20;;;;;;;6.28;73.77;99830.88;5082842;28;20196;-66
2021/03/14 09:24:44;;;;;;;6.57;3.10;;;;;;;6.31;73.49;99824.53;5090574;28;20253;-66
2021/03/14 09:27:14;;;;;;;8.73;4.43;;;;;;;6.33;73.42;99833.25;5085303;28;20228;-67
2021/03/14 09:29:50;;;;;;;7.57;3.97;;;;;;;6.36;73.37;99835.72;5089621;28;20291;-67
2021/03/14 09:32:35;;;;;;;6.97;3.70;;;;;;;6.41;73.59;99841.59;5092398;28;20285;-66
2021/03/14 09:35:19;;;;;;;13.23;8.03;;;;;;;6.49;73.34;99849.91;5093174;28;20199;-66
2021/03/14 09:37:48;;;;;;;9.80;4.50;;;;;;;6.52;73.15;99850.59;5089476;28;20192;-67
2021/03/14 09:40:21;;;;;;;5.80;2.97;;;;;;;6.56;72.61;99851.25;5091182;28;20658;-66
2021/03/14 09:42:49;;;;;;;4.03;2.43;;;;;;;6.57;72.46;99860.91;5090768;28;20220;-67
2021/03/14 09:45:18;;;;;;;5.43;2.80;;;;;;;6.60;72.43;99855.44;5091429;28;20602;-67
2021/03/14 09:48:02;;;;;;;4.73;3.63;;;;;;;6.63;71.72;99861.38;5091640;28;20777;-67
2021/03/14 09:50:29;;;;;;;3.90;2.90;;;;;;;6.69;71.97;99867.25;5085738;28;20260;-65
2021/03/14 09:52:58;;;;;;;4.50;2.37;;;;;;;6.73;71.34;99864.34;5082312;28;20220;-65
2021/03/14 09:55:26;;;;;;;5.77;2.33;;;;;;;6.81;71.47;99866.50;5084345;28;20570;-63
2021/03/14 09:57:52;;;;;;;6.07;2.00;;;;;;;6.90;71.25;99864.16;5079355;28;20193;-61
2021/03/14 10:00:28;;;;;;;4.30;2.30;;;;;;;7.01;71.03;99881.19;5081271;28;20284;-61
2021/03/14 10:02:54;;;;;;;7.93;3.17;;;;;;;7.11;70.77;99879.69;5085282;28;20318;-64
2021/03/14 10:05:20;;;;;;;6.70;2.83;;;;;;;7.23;70.67;99882.44;5079991;28;20208;-62
2021/03/14 10:07:50;;;;;;;4.67;2.20;;;;;;;7.33;69.51;99880.06;5088124;28;20799;-64
2021/03/14 10:10:17;;;;;;;4.97;2.53;;;;;;;7.44;69.87;99893.50;5087940;28;20209;-64
2021/03/14 10:12:43;;;;;;;3.20;2.20;;;;;;;7.57;69.51;99901.50;5083226;28;20745;-64
2021/03/14 10:15:14;;;;;;;5.33;2.20;;;;;;;7.68;69.01;99896.41;5086853;28;20208;-64
2021/03/14 10:17:41;;;;;;;4.40;2.13;;;;;;;7.77;68.56;99903.75;5092678;28;20207;-64
2021/03/14 10:20:09;;;;;;;4.73;1.80;;;;;;;7.83;67.93;99905.19;5088869;28;20564;-64
2021/03/14 10:22:35;;;;;;;2.87;2.00;;;;;;;7.88;67.93;99898.63;5087112;28;20258;-64
2021/03/14 10:25:01;;;;;;;6.07;1.93;;;;;;;7.91;66.64;99908.19;5092247;28;20781;-64
2021/03/14 10:27:27;;;;;;;6.23;1.70;;;;;;;7.90;66.63;99902.03;5082246;28;20633;-64
2021/03/14 10:29:57;;;;;;;4.03;2.33;;;;;;;7.87;66.02;99909.34;5084155;28;20204;-64
2021/03/14 10:32:25;;;;;;;5.97;1.90;;;;;;;7.88;65.47;99908.41;5090427;28;20248;-64
2021/03/14 10:34:54;;;;;;;4.17;1.60;;;;;;;7.87;65.43;99917.31;5086291;28;20200;-62
2021/03/14 10:37:29;;;;;;;3.40;1.60;;;;;;;7.83;64.41;99913.97;5089711;28;20220;-62
2021/03/14 10:40:03;;;;;;;8.17;3.73;;;;;;;7.80;64.13;99922.13;5087918;28;20223;-62
2021/03/14 10:42:35;;;;;;;6.00;3.07;;;;;;;7.80;64.10;99932.72;5092447;28;20375;-64
2021/03/14 10:45:08;;;;;;;3.60;2.00;;;;;;;7.86;64.49;99929.69;5090164;28;20283;-64
2021/03/14 10:47:34;;;;;;;2.87;1.80;;;;;;;7.89;63.64;99920.69;5082331;28;20265;-65
2021/03/14 10:50:14;;;;;;;6.20;2.00;;;;;;;7.90;64.21;99917.94;5081947;28;20282;-65
2021/03/14 10:52:41;;;;;;;4.37;2.17;;;;;;;7.96;63.30;99930.81;5092293;28;20241;-65
2021/03/14 10:55:25;;;;;;;3.90;1.67;;;;;;;8.00;62.90;99927.00;5090212;28;20204;-64
2021/03/14 10:58:03;;;;;;;5.60;2.97;;;;;;;8.04;63.45;99938.28;5086738;28;20554;-65
2021/03/14 11:00:29;;;;;;;5.47;2.40;;;;;;;8.08;63.26;99931.81;5086588;28;20218;-64
2021/03/14 11:02:57;;;;;;;8.43;2.60;;;;;;;8.10;63.27;99942.31;5085068;28;20321;-64
2021/03/14 11:05:24;;;;;;;5.17;3.10;;;;;;;8.11;62.79;99941.38;5087748;28;20287;-62
2021/03/14 11:08:01;;;;;;;4.87;2.60;;;;;;;8.09;62.43;99949.41;5085254;28;20589;-64
2021/03/14 11:10:27;;;;;;;7.27;3.60;;;;;;;8.03;62.74;99955.13;5089681;28;20250;-64
2021/03/14 11:12:54;;;;;;;3.57;2.30;;;;;;;7.98;62.08;99962.53;5089069;28;20315;-64
2021/03/14 11:15:26;;;;;;;5.13;2.60;;;;;;;7.96;62.86;99961.78;5083393;28;20203;-64
2021/03/14 11:17:53;;;;;;;3.93;2.00;;;;;;;7.91;63.00;99967.34;5086806;28;20249;-64
2021/03/14 11:20:20;;;;;;;2.50;1.97;;;;;;;7.88;62.18;99961.41;5088806;28;20264;-64
2021/03/14 11:22:50;;;;;;;5.10;2.10;;;;;;;7.85;61.95;99964.25;5081158;28;20629;-63
2021/03/14 11:25:17;;;;;;;5.33;2.37;;;;;;;7.83;62.56;99956.41;5083296;28;20205;-64
2021/03/14 11:27:43;;;;;;;2.87;2.00;;;;;;;7.86;62.46;99960.66;5087155;28;20822;-64
2021/03/14 11:30:10;;;;;;;4.60;2.23;;;;;;;7.91;62.76;99947.94;5089344;28;20203;-64
2021/03/14 11:32:36;;;;;;;5.43;2.40;;;;;;;7.96;62.81;99956.47;5082812;28;20231;-64
2021/03/14 11:35:04;;;;;;;6.07;2.47;;;;;;;8.04;63.45;99961.28;5084134;28;20228;-65
2021/03/14 11:37:30;;;;;;;4.83;2.50;;;;;;;8.12;63.15;99957.19;5086845;28;20197;-64
2021/03/14 11:39:57;;;;;;;3.33;2.23;;;;;;;8.20;63.35;99969.97;5086466;28;20203;-64
2021/03/14 11:42:23;;;;;;;3.27;2.10;;;;;;;8.23;62.08;99973.28;5085558;28;20234;-64
2021/03/14 11:44:49;;;;;;;3.83;2.23;;;;;;;8.25;61.83;99979.31;5079807;28;20215;-64
2021/03/14 11:47:15;;;;;;;3.87;2.03;;;;;;;8.27;61.36;99976.56;5081544;28;20235;-64
2021/03/14 11:49:41;;;;;;;3.70;2.07;;;;;;;8.28;62.27;99973.81;5080782;28;20692;-64